Time;durP1;ratioP1;P1;durP2;ratioP2;P2;SDS_P1;SDS_P2;PMS_P1;PMS_P2;Temp;Humidity;BMP_temperature;BMP_pressure;BME280_temperature;BME280_humidity;BME280_pressure;Samples;Min_cycle;Max_cycle;Signal;HPM_P1;HPM_P2
2022/06/17 00:00:29;;;;;;;11.35;7.03;;;;;;;15.29;60.73;94568.38;4932104;29;20047;-59
2022/06/17 00:02:56;;;;;;;9.65;7.32;;;;;;;15.29;60.81;94565.63;4932421;29;20044;-58
2022/06/17 00:05:23;;;;;;;9.15;7.20;;;;;;;15.27;60.64;94562.50;4931192;29;20044;-58
2022/06/17 00:07:50;;;;;;;10.37;6.70;;;;;;;15.25;60.31;94559.38;4931939;29;20110;-58
2022/06/17 00:10:23;;;;;;;11.00;6.57;;;;;;;15.15;59.96;94570.28;4930128;29;20062;-58
2022/06/17 00:12:51;;;;;;;9.05;6.40;;;;;;;15.11;60.04;94566.81;4931734;29;20070;-58
2022/06/17 00:15:19;;;;;;;9.07;6.43;;;;;;;15.13;59.93;94566.38;4931727;29;20105;-58
2022/06/17 00:17:58;;;;;;;8.70;6.60;;;;;;;15.09;59.70;94568.44;4932034;29;20056;-58
2022/06/17 00:20:25;;;;;;;11.23;6.60;;;;;;;15.09;59.66;94566.47;4902652;29;21509;-58
2022/06/17 00:22:52;;;;;;;10.75;6.40;;;;;;;15.07;59.73;94563.34;4931815;29;20056;-58
2022/06/17 00:25:35;;;;;;;8.32;6.22;;;;;;;14.99;60.01;94564.72;4931661;29;20423;-58
2022/06/17 00:28:02;;;;;;;8.43;6.00;;;;;;;14.92;59.74;94562.88;4935168;29;20043;-58
2022/06/17 00:30:32;;;;;;;8.40;6.00;;;;;;;14.86;60.33;94558.28;4935462;29;20414;-58
2022/06/17 00:33:02;;;;;;;8.43;6.40;;;;;;;14.83;60.39;94567.41;4931736;29;20044;-58
2022/06/17 00:35:35;;;;;;;9.65;6.40;;;;;;;14.81;61.03;94562.34;4928309;29;20815;-58
2022/06/17 00:38:03;;;;;;;8.77;5.80;;;;;;;14.75;60.09;94562.06;4935012;29;20053;-58
2022/06/17 00:40:33;;;;;;;7.57;5.45;;;;;;;14.74;59.74;94566.00;4935645;29;20036;-58
2022/06/17 00:43:07;;;;;;;7.38;5.53;;;;;;;14.65;59.55;94568.59;4934797;29;20043;-57
2022/06/17 00:45:44;;;;;;;8.30;5.30;;;;;;;14.67;59.46;94570.91;4918640;29;20114;-58
2022/06/17 00:48:28;;;;;;;7.20;4.95;;;;;;;14.64;59.28;94563.47;4934548;29;20095;-58
2022/06/17 00:50:59;;;;;;;7.43;5.50;;;;;;;14.62;59.32;94561.13;4913528;29;20482;-58
2022/06/17 00:53:33;;;;;;;7.88;5.63;;;;;;;14.64;59.71;94558.72;4934315;29;20581;-58
2022/06/17 00:56:05;;;;;;;7.63;5.50;;;;;;;14.62;59.57;94547.31;4934614;29;20048;-58
2022/06/17 00:58:53;;;;;;;7.37;5.77;;;;;;;14.53;59.87;94553.41;4934902;29;20043;-58
2022/06/17 01:01:22;;;;;;;8.82;5.50;;;;;;;14.43;59.72;94559.13;4934574;29;20410;-58
2022/06/17 01:03:53;;;;;;;8.70;5.72;;;;;;;14.44;60.20;94557.94;4934822;29;20439;-58
2022/06/17 01:06:27;;;;;;;7.45;5.60;;;;;;;14.40;60.11;94552.47;4934225;29;20092;-58
2022/06/17 01:11:44;;;;;;;7.80;5.60;;;;;;;14.32;60.22;94554.59;4933722;29;20410;-58
2022/06/17 01:14:14;;;;;;;8.95;5.57;;;;;;;14.36;60.03;94558.06;4925837;29;20415;-58
2022/06/17 01:16:42;;;;;;;8.32;5.63;;;;;;;14.37;60.22;94561.63;4929834;29;20062;-58
2022/06/17 01:19:26;;;;;;;8.70;5.55;;;;;;;14.31;59.89;94555.81;4923244;29;20056;-57
2022/06/17 01:22:08;;;;;;;6.75;5.22;;;;;;;14.32;60.27;94562.09;4931669;29;20056;-58
2022/06/17 01:24:35;;;;;;;10.57;7.13;;;;;;;13.95;63.58;94566.72;4933592;29;20435;-58
2022/06/17 01:27:02;;;;;;;8.80;7.00;;;;;;;13.90;64.42;94564.44;4932443;29;20419;-58
2022/06/17 01:29:30;;;;;;;9.60;7.45;;;;;;;13.80;64.88;94557.91;4922878;29;20098;-58
2022/06/17 01:31:57;;;;;;;8.13;6.10;;;;;;;13.84;64.23;94558.63;4934610;29;20221;-58
2022/06/17 01:34:24;;;;;;;10.10;6.13;;;;;;;13.79;63.75;94553.59;4923288;29;20050;-58
2022/06/17 01:36:53;;;;;;;8.40;5.93;;;;;;;13.84;63.21;94552.34;4933009;29;20432;-58
2022/06/17 01:39:20;;;;;;;7.18;5.40;;;;;;;13.84;62.66;94555.88;4933793;29;20595;-58
2022/06/17 01:41:48;;;;;;;7.10;5.60;;;;;;;13.87;62.53;94552.28;4934344;29;20074;-58
2022/06/17 01:44:23;;;;;;;8.82;6.05;;;;;;;13.91;62.59;94554.97;4933669;29;20548;-58
2022/06/17 01:46:54;;;;;;;7.50;5.45;;;;;;;13.88;62.48;94551.06;4934287;29;20048;-58
2022/06/17 01:49:42;;;;;;;8.73;5.80;;;;;;;13.87;62.54;94555.03;4933388;29;20055;-58
2022/06/17 01:52:17;;;;;;;9.48;5.95;;;;;;;13.92;62.90;94548.25;4933650;29;20063;-58
2022/06/17 01:54:50;;;;;;;7.30;5.88;;;;;;;13.91;63.08;94553.00;4934196;29;20455;-58
2022/06/17 01:57:23;;;;;;;9.02;6.82;;;;;;;13.87;63.94;94549.53;4933478;29;20063;-58
2022/06/17 01:59:59;;;;;;;10.13;7.90;;;;;;;13.81;64.56;94542.16;4933968;29;20043;-58
2022/06/17 02:02:27;;;;;;;11.47;7.63;;;;;;;13.77;64.97;94550.50;4932962;29;20478;-58
2022/06/17 02:04:59;;;;;;;10.18;7.40;;;;;;;13.85;64.71;94542.88;4933780;29;20407;-58
2022/06/17 02:07:57;;;;;;;11.65;7.72;;;;;;;13.68;65.44;94540.00;4933096;29;20046;-58
2022/06/17 02:10:38;;;;;;;9.90;7.20;;;;;;;13.76;65.28;94535.94;4898206;29;20052;-58
2022/06/17 02:13:05;;;;;;;33.08;20.88;;;;;;;13.80;65.17;94533.06;4933482;29;20048;-58
2022/06/17 02:15:34;;;;;;;20.53;13.03;;;;;;;13.82;64.72;94540.94;4933723;29;20040;-58
2022/06/17 02:18:05;;;;;;;12.45;8.27;;;;;;;13.81;64.18;94542.94;4931351;29;20054;-57
2022/06/17 02:20:31;;;;;;;10.35;6.90;;;;;;;13.79;64.71;94545.31;4921671;29;20039;-58
2022/06/17 02:23:02;;;;;;;9.80;6.75;;;;;;;13.81;64.47;94550.44;4932942;29;20039;-58
2022/06/17 02:25:34;;;;;;;9.43;7.00;;;;;;;13.75;65.08;94547.38;4932008;29;20036;-58
2022/06/17 02:28:03;;;;;;;10.10;6.50;;;;;;;13.71;65.21;94541.91;4920757;29;20407;-58
2022/06/17 02:30:30;;;;;;;11.35;6.70;;;;;;;13.81;64.44;94539.41;4932431;29;20036;-58
2022/06/17 02:33:01;;;;;;;9.38;6.28;;;;;;;13.84;64.32;94544.81;4929788;29;20052;-58
2022/06/17 02:35:46;;;;;;;7.97;6.00;;;;;;;13.85;64.05;94548.38;4928536;29;20048;-58
2022/06/17 02:38:17;;;;;;;8.52;6.50;;;;;;;13.84;64.33;94549.56;4932662;29;20388;-58
2022/06/17 02:40:48;;;;;;;34.97;20.47;;;;;;;13.88;64.30;94544.78;4933246;29;20047;-58
2022/06/17 02:43:21;;;;;;;18.48;10.27;;;;;;;13.94;63.85;94541.13;4932723;29;20043;-58
2022/06/17 02:45:54;;;;;;;9.38;6.75;;;;;;;13.95;63.76;94539.91;4933096;29;20043;-58
2022/06/17 02:48:24;;;;;;;9.82;6.95;;;;;;;13.99;64.00;94539.84;4932219;29;20052;-58
2022/06/17 02:50:53;;;;;;;7.72;6.15;;;;;;;14.01;63.98;94539.44;4933185;29;20048;-58
2022/06/17 02:53:32;;;;;;;8.60;5.73;;;;;;;14.03;63.90;94550.84;4932222;29;20052;-58
2022/06/17 02:56:03;;;;;;;9.40;6.68;;;;;;;13.91;65.36;94558.50;4932885;29;20059;-58
2022/06/17 02:58:45;;;;;;;9.88;7.03;;;;;;;13.74;65.53;94554.06;4931685;29;20047;-58
2022/06/17 03:01:22;;;;;;;10.25;7.43;;;;;;;13.41;67.21;94555.81;4932096;29;20495;-58
2022/06/17 03:03:50;;;;;;;8.95;6.80;;;;;;;13.32;67.42;94559.88;4932835;29;20168;-58
2022/06/17 03:06:29;;;;;;;30.83;19.80;;;;;;;13.43;67.16;94556.19;4932181;29;20125;-58
2022/06/17 03:08:58;;;;;;;16.83;12.05;;;;;;;13.52;66.92;94548.94;4932640;29;20495;-58
2022/06/17 03:11:25;;;;;;;12.95;9.13;;;;;;;13.61;66.68;94553.91;4931881;29;20912;-58
2022/06/17 03:13:58;;;;;;;12.25;7.30;;;;;;;13.74;66.85;94545.81;4932705;29;20403;-58
2022/06/17 03:16:25;;;;;;;9.52;6.55;;;;;;;13.79;66.39;94551.63;4932233;29;20057;-58
2022/06/17 03:18:53;;;;;;;8.33;6.20;;;;;;;13.85;66.01;94546.41;4924188;29;20052;-58
2022/06/17 03:21:23;;;;;;;8.55;6.60;;;;;;;13.80;66.17;94541.34;4927262;29;20051;-58
2022/06/17 03:24:14;;;;;;;9.68;6.75;;;;;;;13.74;66.38;94545.81;4932460;29;20039;-58
2022/06/17 03:26:56;;;;;;;9.02;6.50;;;;;;;13.80;65.87;94552.38;4930834;29;20066;-59
2022/06/17 03:29:25;;;;;;;10.10;6.80;;;;;;;13.68;65.68;94550.25;4931376;29;20438;-58
2022/06/17 03:32:00;;;;;;;10.47;7.03;;;;;;;13.61;66.04;94555.88;4931665;29;20039;-58
2022/06/17 03:34:52;;;;;;;9.82;7.13;;;;;;;13.63;65.83;94568.06;4923482;29;20640;-58
2022/06/17 03:37:31;;;;;;;9.73;7.35;;;;;;;13.72;65.48;94556.47;4931014;29;20055;-58
2022/06/17 03:40:03;;;;;;;11.10;7.10;;;;;;;13.79;65.44;94567.41;4931762;29;20051;-58
2022/06/17 03:43:03;;;;;;;8.95;6.57;;;;;;;13.88;64.91;94567.63;4930544;29;20603;-58
2022/06/17 03:45:43;;;;;;;9.47;6.67;;;;;;;13.90;64.88;94565.22;4899256;29;21607;-58
2022/06/17 03:48:36;;;;;;;9.55;6.82;;;;;;;13.98;64.27;94572.19;4931089;29;20039;-58
2022/06/17 03:51:03;;;;;;;8.40;6.53;;;;;;;14.05;64.20;94573.25;4930891;29;20146;-57
2022/06/17 03:53:33;;;;;;;8.80;6.43;;;;;;;14.08;64.11;94570.41;4931276;29;20047;-58
2022/06/17 03:56:07;;;;;;;7.60;6.20;;;;;;;14.17;63.44;94570.66;4930997;29;20047;-56
2022/06/17 03:58:37;;;;;;;8.40;5.90;;;;;;;14.27;63.40;94563.38;4931410;29;20043;-59
2022/06/17 04:01:21;;;;;;;8.18;5.70;;;;;;;14.34;62.98;94582.56;4932704;29;20047;-58
2022/06/17 04:03:53;;;;;;;8.18;5.88;;;;;;;14.42;62.82;94583.19;4934852;29;20053;-58
2022/06/17 04:06:30;;;;;;;9.05;6.35;;;;;;;14.44;62.68;94578.03;4933982;29;20060;-58
2022/06/17 04:09:01;;;;;;;8.85;6.20;;;;;;;14.39;62.93;94587.59;4934946;29;20044;-58
2022/06/17 04:11:33;;;;;;;8.10;6.50;;;;;;;14.45;63.19;94587.88;4933673;29;21619;-58
2022/06/17 04:14:05;;;;;;;9.05;6.90;;;;;;;14.55;63.12;94588.88;4934038;29;20043;-57
2022/06/17 04:16:41;;;;;;;10.13;7.13;;;;;;;14.06;65.01;94589.38;4934629;29;20356;-58
2022/06/17 04:19:14;;;;;;;8.35;6.85;;;;;;;14.17;65.00;94589.19;4923352;29;20119;-58
2022/06/17 04:21:41;;;;;;;9.32;7.05;;;;;;;14.55;63.63;94594.41;4931985;29;20054;-58
2022/06/17 04:27:01;;;;;;;8.90;6.63;;;;;;;15.63;60.70;94587.34;5012867;27;1277159;-58
2022/06/17 04:29:39;;;;;;;11.32;7.20;;;;;;;17.34;56.16;94595.06;5046144;28;20051;-58
2022/06/17 04:32:31;;;;;;;8.30;6.60;;;;;;;17.51;54.86;94590.16;5037970;28;20038;-58
2022/06/17 04:34:58;;;;;;;8.82;6.70;;;;;;;18.24;52.59;94594.97;5051548;28;20104;-57
2022/06/17 04:37:26;;;;;;;9.55;6.50;;;;;;;19.43;50.00;94587.94;5065736;28;21657;-58
2022/06/17 04:39:58;;;;;;;10.18;7.25;;;;;;;19.94;48.37;94582.72;5066739;28;20055;-58
2022/06/17 04:42:34;;;;;;;11.65;8.38;;;;;;;20.23;47.25;94591.91;5057660;28;20058;-58
2022/06/17 04:45:01;;;;;;;9.43;7.30;;;;;;;20.18;46.77;94589.72;5066105;28;20067;-57
2022/06/17 04:47:29;;;;;;;8.60;6.38;;;;;;;19.62;47.09;94595.13;5066497;28;20055;-58
2022/06/17 04:50:00;;;;;;;8.50;7.05;;;;;;;17.76;50.62;94600.47;5066514;28;20045;-57
2022/06/17 04:52:32;;;;;;;11.23;7.13;;;;;;;17.85;50.56;94602.59;5065422;28;21502;-58
2022/06/17 04:55:01;;;;;;;8.25;6.40;;;;;;;17.50;51.79;94601.69;5066280;28;20052;-58
2022/06/17 04:57:29;;;;;;;11.10;7.30;;;;;;;17.22;52.73;94606.13;5065420;28;20707;-58
2022/06/17 04:59:58;;;;;;;9.38;7.47;;;;;;;16.13;56.05;94613.03;5066225;28;20079;-58
2022/06/17 05:02:28;;;;;;;11.38;7.20;;;;;;;16.51;55.23;94609.69;5065688;28;20489;-57
2022/06/17 05:04:58;;;;;;;10.75;7.53;;;;;;;16.42;54.96;94603.97;5066183;28;20040;-58
2022/06/17 05:07:33;;;;;;;10.70;7.65;;;;;;;15.58;57.49;94615.53;5045322;28;21158;-57
2022/06/17 05:10:27;;;;;;;9.50;7.63;;;;;;;16.41;55.38;94610.75;5037932;28;20072;-58
2022/06/17 05:13:27;;;;;;;9.85;7.55;;;;;;;16.80;54.63;94614.44;5046225;28;20094;-57
2022/06/17 05:15:54;;;;;;;10.32;7.40;;;;;;;17.64;52.75;94608.81;5038010;28;20741;-57
2022/06/17 05:18:21;;;;;;;9.88;7.20;;;;;;;20.26;46.83;94602.91;5047963;28;20408;-58
2022/06/17 05:20:48;;;;;;;9.32;6.78;;;;;;;22.36;41.78;94595.78;5051295;28;20045;-57
2022/06/17 05:23:16;;;;;;;7.87;6.17;;;;;;;23.99;38.54;94594.41;5061147;28;20058;-57
2022/06/17 05:25:46;;;;;;;7.88;6.65;;;;;;;23.96;37.92;94592.56;5065407;28;20067;-57
2022/06/17 05:28:19;;;;;;;8.80;6.30;;;;;;;24.21;36.56;94591.16;5055800;28;20037;-57
2022/06/17 05:30:52;;;;;;;6.85;6.15;;;;;;;24.00;36.95;94593.91;5065350;28;20047;-57
2022/06/17 05:33:23;;;;;;;6.85;5.90;;;;;;;24.76;35.96;94600.81;5055029;28;20048;-57
2022/06/17 05:35:50;;;;;;;8.43;6.70;;;;;;;26.09;33.72;94599.00;5045018;28;20056;-57
2022/06/17 05:38:17;;;;;;;6.55;5.72;;;;;;;28.11;30.37;94600.91;5031418;28;20042;-58
2022/06/17 05:40:44;;;;;;;10.52;6.00;;;;;;;27.13;31.17;94606.16;5031030;28;20056;-58
2022/06/17 05:43:11;;;;;;;6.78;5.50;;;;;;;28.98;28.82;94601.69;5031664;28;20067;-58
2022/06/17 05:45:39;;;;;;;7.93;5.88;;;;;;;29.64;27.28;94601.84;5032078;28;20404;-58
2022/06/17 05:48:06;;;;;;;9.50;5.83;;;;;;;29.83;27.17;94601.22;5031538;28;20049;-58
2022/06/17 05:50:33;;;;;;;7.38;5.75;;;;;;;26.74;30.10;94612.41;5032102;28;20045;-58
2022/06/17 05:53:05;;;;;;;6.65;5.45;;;;;;;28.22;28.49;94606.53;5030349;28;20518;-58
2022/06/17 05:55:34;;;;;;;7.68;5.70;;;;;;;25.70;32.30;94619.16;5017985;28;20045;-58
2022/06/17 05:58:01;;;;;;;6.30;5.45;;;;;;;26.10;33.12;94614.63;5031796;28;20041;-58
2022/06/17 06:00:30;;;;;;;6.50;5.20;;;;;;;27.32;31.03;94620.56;5032212;28;20045;-58
2022/06/17 06:03:03;;;;;;;6.18;4.80;;;;;;;27.19;29.59;94625.91;5032009;28;20144;-58
2022/06/17 06:05:32;;;;;;;8.30;5.05;;;;;;;26.86;30.27;94630.13;5030876;28;20411;-58
2022/06/17 06:08:00;;;;;;;5.57;4.65;;;;;;;26.42;30.07;94623.78;5031958;28;20059;-58
2022/06/17 06:10:33;;;;;;;7.15;4.70;;;;;;;26.98;29.56;94634.53;5038200;28;20337;-58
2022/06/17 06:13:05;;;;;;;5.87;4.80;;;;;;;26.11;29.74;94636.59;5032021;28;20057;-58
2022/06/17 06:15:43;;;;;;;6.55;4.80;;;;;;;25.14;32.52;94638.25;5050690;28;20041;-58
2022/06/17 06:18:14;;;;;;;7.75;4.82;;;;;;;25.14;33.48;94641.81;5031990;28;20045;-58
2022/06/17 06:20:41;;;;;;;6.60;4.80;;;;;;;26.33;30.47;94643.66;5041298;28;20059;-58
2022/06/17 06:23:08;;;;;;;6.15;4.70;;;;;;;24.72;32.92;94649.50;5050829;28;20049;-58
2022/06/17 06:25:36;;;;;;;7.23;5.10;;;;;;;25.90;30.50;94647.19;5051121;28;20045;-58
2022/06/17 06:28:11;;;;;;;5.88;4.70;;;;;;;28.05;28.05;94648.09;5050455;28;20064;-58
2022/06/17 06:30:39;;;;;;;6.07;4.70;;;;;;;26.38;29.49;94648.56;5049859;28;20048;-58
2022/06/17 06:33:06;;;;;;;7.18;4.70;;;;;;;28.67;26.49;94646.00;5050620;28;20113;-58
2022/06/17 06:35:35;;;;;;;5.53;4.25;;;;;;;27.12;28.80;94649.69;5045428;28;20049;-57
2022/06/17 06:38:03;;;;;;;6.90;4.30;;;;;;;26.97;29.27;94655.53;5047506;28;20041;-57
2022/06/17 06:40:31;;;;;;;6.35;4.07;;;;;;;29.64;25.44;94649.13;5051058;28;20059;-58
2022/06/17 06:42:59;;;;;;;6.78;4.10;;;;;;;31.22;23.45;94642.03;5051311;28;20500;-58
2022/06/17 06:45:29;;;;;;;5.75;4.20;;;;;;;30.10;23.64;94655.28;5046632;28;20063;-58
2022/06/17 06:47:58;;;;;;;6.43;4.45;;;;;;;27.69;26.81;94657.03;5030465;28;20075;-58
2022/06/17 06:50:28;;;;;;;5.63;4.00;;;;;;;28.32;26.56;94655.00;5039242;28;20626;-58
2022/06/17 06:52:55;;;;;;;5.63;4.15;;;;;;;26.93;27.76;94662.69;5045048;28;20049;-58
2022/06/17 06:55:22;;;;;;;6.53;4.28;;;;;;;27.32;28.24;94657.22;5022284;28;20049;-59
2022/06/17 06:57:55;;;;;;;5.05;4.18;;;;;;;27.12;28.48;94663.00;5022966;28;20049;-59
2022/06/17 07:00:31;;;;;;;8.43;4.32;;;;;;;26.34;29.04;94667.72;5029765;28;20067;-59
2022/06/17 07:02:58;;;;;;;5.83;4.17;;;;;;;29.11;25.31;94665.34;5021090;28;20050;-60
2022/06/17 07:05:25;;;;;;;5.30;3.88;;;;;;;28.17;26.99;94663.75;5037000;28;20038;-59
2022/06/17 07:07:52;;;;;;;5.40;4.35;;;;;;;26.80;28.01;94665.94;5049089;28;20041;-59
2022/06/17 07:10:24;;;;;;;5.38;4.15;;;;;;;27.78;28.01;94664.47;5050032;28;20102;-60
2022/06/17 07:12:53;;;;;;;6.32;4.18;;;;;;;28.78;26.36;94664.19;5050613;28;20057;-59
2022/06/17 07:15:20;;;;;;;5.63;4.33;;;;;;;26.85;28.10;94663.16;5049641;28;20033;-59
2022/06/17 07:18:04;;;;;;;8.00;4.70;;;;;;;24.70;32.31;94668.09;5050191;28;20501;-59
2022/06/17 07:20:42;;;;;;;5.57;4.40;;;;;;;25.61;31.09;94661.47;5021388;28;20485;-59
2022/06/17 07:23:15;;;;;;;6.47;4.40;;;;;;;28.07;27.86;94663.25;5033008;28;20045;-59
2022/06/17 07:25:43;;;;;;;6.20;4.35;;;;;;;30.19;24.87;94655.72;5036093;28;20051;-59
2022/06/17 07:28:19;;;;;;;5.80;4.03;;;;;;;33.45;20.74;94664.97;5037728;28;20048;-60
2022/06/17 07:30:48;;;;;;;10.45;4.32;;;;;;;30.90;23.91;94665.34;5014423;28;20057;-59
2022/06/17 07:33:17;;;;;;;6.45;4.22;;;;;;;31.77;23.04;94661.69;5029428;28;20046;-59
2022/06/17 07:35:46;;;;;;;4.90;3.72;;;;;;;34.22;20.64;94658.06;5029955;28;20210;-57
2022/06/17 07:41:02;;;;;;;6.60;4.20;;;;;;;30.71;24.22;94656.78;5037824;28;20099;-57
2022/06/17 07:43:29;;;;;;;5.65;4.50;;;;;;;29.66;25.99;94660.69;5038045;28;20048;-58
2022/06/17 07:45:57;;;;;;;5.80;4.60;;;;;;;30.78;25.01;94656.19;5037555;28;20045;-57
2022/06/17 07:48:23;;;;;;;7.97;4.28;;;;;;;32.80;21.79;94653.81;5032745;28;20049;-57
2022/06/17 07:50:50;;;;;;;5.68;4.22;;;;;;;33.77;21.19;94651.31;5034717;28;20055;-59
2022/06/17 07:53:17;;;;;;;6.90;3.97;;;;;;;34.75;20.53;94646.38;5037729;28;20049;-58
2022/06/17 07:55:47;;;;;;;5.95;4.25;;;;;;;32.06;22.76;94656.38;5016097;28;20056;-59
2022/06/17 07:58:16;;;;;;;5.30;3.88;;;;;;;34.40;20.58;94642.06;5038504;28;20049;-58
2022/06/17 08:00:44;;;;;;;5.18;3.75;;;;;;;34.20;20.45;94635.81;5049168;28;20045;-59
2022/06/17 08:03:13;;;;;;;4.90;4.00;;;;;;;36.37;18.81;94644.19;5049253;28;20068;-59
2022/06/17 08:05:43;;;;;;;5.40;4.03;;;;;;;33.72;21.43;94640.06;5049692;28;20055;-59
2022/06/17 08:08:11;;;;;;;5.22;4.00;;;;;;;35.07;19.48;94636.66;5049218;28;20040;-59
2022/06/17 08:10:38;;;;;;;6.22;4.75;;;;;;;34.08;20.91;94633.78;5049648;28;20041;-59
2022/06/17 08:13:07;;;;;;;7.13;4.57;;;;;;;34.62;19.62;94644.31;5048842;28;20056;-59
2022/06/17 08:15:35;;;;;;;4.72;3.50;;;;;;;35.92;19.65;94637.03;5049542;28;20041;-59
2022/06/17 08:18:03;;;;;;;6.00;3.77;;;;;;;31.75;22.87;94648.03;5044947;28;20060;-59
2022/06/17 08:20:34;;;;;;;4.85;3.50;;;;;;;32.17;22.54;94645.59;5028187;28;20406;-59
2022/06/17 08:23:02;;;;;;;5.15;3.83;;;;;;;32.83;21.71;94642.09;5032740;28;20041;-57
2022/06/17 08:25:30;;;;;;;6.10;3.55;;;;;;;33.96;20.72;94644.66;5033061;28;20048;-59
2022/06/17 08:28:02;;;;;;;5.28;3.35;;;;;;;32.01;21.71;94646.63;5033517;28;20049;-59
2022/06/17 08:30:33;;;;;;;5.17;3.30;;;;;;;31.80;21.79;94640.75;5039545;28;20546;-59
2022/06/17 08:33:00;;;;;;;5.43;3.15;;;;;;;32.70;20.94;94639.28;5045468;28;20474;-59
2022/06/17 08:35:48;;;;;;;5.43;3.20;;;;;;;32.91;18.79;94636.53;5025188;28;20549;-59
2022/06/17 08:38:27;;;;;;;4.93;3.10;;;;;;;29.16;23.89;94639.91;5019265;28;20060;-59
2022/06/17 08:40:54;;;;;;;6.00;3.25;;;;;;;29.30;23.35;94635.22;5049150;28;20132;-59
2022/06/17 08:43:50;;;;;;;6.20;3.33;;;;;;;29.81;23.12;94638.50;5024448;28;20345;-59
2022/06/17 08:46:32;;;;;;;6.60;3.00;;;;;;;31.30;21.73;94642.22;5027614;28;20166;-59
2022/06/17 08:49:20;;;;;;;5.82;3.20;;;;;;;33.83;17.39;94646.25;5033492;28;20053;-59
2022/06/17 08:52:08;;;;;;;4.75;2.97;;;;;;;33.32;17.21;94646.56;5030879;28;20606;-59
2022/06/17 08:55:20;;;;;;;5.60;2.97;;;;;;;31.88;18.50;94646.56;5033174;28;20465;-59
2022/06/17 08:57:59;;;;;;;4.70;3.13;;;;;;;30.67;19.47;94654.25;5031615;28;20056;-59
2022/06/17 09:00:41;;;;;;;3.90;2.90;;;;;;;29.84;20.47;94651.63;5022896;28;20044;-59
2022/06/17 09:03:43;;;;;;;5.47;3.17;;;;;;;31.20;20.20;94648.25;5028660;28;20045;-59
2022/06/17 09:06:35;;;;;;;4.90;2.90;;;;;;;30.64;18.97;94649.63;5011665;28;20536;-59
2022/06/17 09:09:20;;;;;;;5.28;3.20;;;;;;;29.06;21.05;94647.91;5028668;28;20159;-58
2022/06/17 09:11:47;;;;;;;4.73;2.90;;;;;;;32.53;18.25;94639.53;5029672;28;20049;-59
2022/06/17 09:14:35;;;;;;;3.85;2.80;;;;;;;33.93;16.22;94640.84;5032259;28;20054;-59
2022/06/17 09:17:20;;;;;;;4.07;2.55;;;;;;;36.55;14.19;94627.97;5032529;28;20053;-59
2022/06/17 09:19:52;;;;;;;4.63;2.42;;;;;;;34.86;15.88;94631.03;5030820;28;20047;-60
2022/06/17 09:22:28;;;;;;;5.80;2.90;;;;;;;33.65;16.51;94627.28;5031044;28;20034;-58
2022/06/17 09:25:02;;;;;;;4.53;2.70;;;;;;;35.89;14.90;94621.78;5032479;28;20367;-58
2022/06/17 09:27:35;;;;;;;4.38;2.40;;;;;;;36.99;13.95;94613.47;5039473;28;20666;-59
2022/06/17 09:30:16;;;;;;;7.03;2.55;;;;;;;34.70;15.73;94620.84;5032398;28;20049;-58
2022/06/17 09:32:53;;;;;;;4.32;2.30;;;;;;;34.34;15.95;94630.81;5032408;28;20067;-59
2022/06/17 09:35:29;;;;;;;5.20;2.40;;;;;;;34.61;15.97;94625.72;5032281;28;20086;-60
2022/06/17 09:38:22;;;;;;;3.63;2.23;;;;;;;35.54;15.16;94614.84;5032386;28;20049;-59
2022/06/17 09:40:59;;;;;;;5.63;2.00;;;;;;;38.51;11.59;94616.16;5031619;28;20409;-59
2022/06/17 09:43:40;;;;;;;4.32;1.90;;;;;;;35.31;14.32;94609.78;5039545;28;20425;-61
2022/06/17 09:46:13;;;;;;;3.83;1.85;;;;;;;34.78;14.90;94615.97;5032105;28;20193;-60
2022/06/17 09:48:51;;;;;;;2.97;1.80;;;;;;;37.00;12.87;94620.69;5032165;28;20042;-60
2022/06/17 09:51:24;;;;;;;3.90;2.30;;;;;;;35.31;13.83;94612.63;5031804;28;20045;-60
2022/06/17 09:54:02;;;;;;;3.10;2.10;;;;;;;30.26;17.74;94629.66;5032063;28;20042;-60
2022/06/17 09:56:43;;;;;;;5.03;2.55;;;;;;;29.65;19.71;94633.72;5050962;28;20052;-60
2022/06/17 09:59:21;;;;;;;5.45;2.50;;;;;;;32.45;18.16;94621.63;5051094;28;20040;-60
2022/06/17 10:01:48;;;;;;;5.97;2.70;;;;;;;33.38;16.49;94627.34;5051884;28;20063;-59
2022/06/17 10:04:16;;;;;;;4.00;2.30;;;;;;;35.76;14.61;94628.44;5050911;28;20362;-60
2022/06/17 10:06:57;;;;;;;3.83;2.38;;;;;;;34.27;15.71;94631.53;5051771;28;20409;-59
2022/06/17 10:09:39;;;;;;;5.10;2.60;;;;;;;32.58;18.24;94632.28;5050685;28;20059;-60
2022/06/17 10:12:21;;;;;;;5.25;2.70;;;;;;;32.90;17.12;94631.38;5026517;28;20122;-59
2022/06/17 10:15:02;;;;;;;4.35;2.50;;;;;;;34.90;15.93;94625.72;5051480;28;20076;-59
2022/06/17 10:18:32;;;;;;;4.60;2.50;;;;;;;34.14;16.41;94631.59;5051026;28;20575;-59
2022/06/17 10:21:08;;;;;;;4.68;2.42;;;;;;;33.73;16.67;94635.91;5016653;28;20041;-60
2022/06/17 10:23:53;;;;;;;4.28;2.30;;;;;;;34.07;15.15;94637.94;5030717;28;20571;-60
2022/06/17 10:26:45;;;;;;;3.28;2.10;;;;;;;33.20;15.73;94628.22;5030907;28;20050;-60
2022/06/17 10:29:30;;;;;;;6.13;2.10;;;;;;;36.32;12.97;94628.75;5046308;28;20048;-60
2022/06/17 10:31:58;;;;;;;3.60;2.03;;;;;;;32.50;16.10;94626.44;5039339;28;20056;-60
2022/06/17 10:34:46;;;;;;;3.55;1.77;;;;;;;35.63;13.50;94619.22;5030482;28;20041;-60
2022/06/17 10:37:14;;;;;;;4.28;2.03;;;;;;;37.08;12.62;94620.66;5039401;28;20049;-60
2022/06/17 10:40:05;;;;;;;2.90;1.85;;;;;;;36.70;12.73;94619.41;5026137;28;20103;-59
2022/06/17 10:42:32;;;;;;;3.65;2.08;;;;;;;35.74;14.52;94613.22;5031591;28;20045;-60
2022/06/17 10:45:01;;;;;;;4.50;2.50;;;;;;;33.37;16.41;94610.81;5031652;28;20046;-59
2022/06/17 10:47:44;;;;;;;3.92;2.35;;;;;;;32.57;16.35;94616.53;5037789;28;20187;-60
2022/06/17 10:50:29;;;;;;;4.97;2.15;;;;;;;33.37;16.20;94610.81;5030451;28;20045;-59
2022/06/17 10:53:40;;;;;;;3.22;2.20;;;;;;;32.55;16.92;94622.75;5030578;28;20046;-59
2022/06/17 10:56:21;;;;;;;5.10;2.05;;;;;;;29.25;19.09;94613.41;4987744;28;20078;-59
2022/06/17 10:59:14;;;;;;;2.90;1.90;;;;;;;30.88;17.39;94611.28;5024583;28;20139;-59
2022/06/17 11:01:47;;;;;;;3.72;2.22;;;;;;;29.25;19.75;94611.34;5023813;28;20048;-59
2022/06/17 11:04:26;;;;;;;3.70;2.30;;;;;;;28.49;20.48;94619.06;5050267;28;20404;-59
2022/06/17 11:07:15;;;;;;;3.58;2.20;;;;;;;29.35;19.95;94602.56;5050887;28;20051;-59
2022/06/17 11:09:54;;;;;;;3.25;2.17;;;;;;;29.16;20.21;94597.53;5029870;28;20136;-58
2022/06/17 11:12:32;;;;;;;4.77;2.40;;;;;;;29.27;20.12;94594.63;5023994;28;20053;-59
2022/06/17 11:15:06;;;;;;;2.90;2.20;;;;;;;29.55;19.73;94592.91;5034323;28;20045;-59
2022/06/17 11:17:42;;;;;;;3.53;2.45;;;;;;;30.10;19.96;94593.75;5029615;28;20739;-58
2022/06/17 11:20:15;;;;;;;6.70;2.50;;;;;;;30.74;19.84;94601.88;5037972;28;20406;-58
2022/06/17 11:23:21;;;;;;;3.58;2.25;;;;;;;30.64;19.96;94595.81;5045130;28;20114;-58
2022/06/17 11:25:50;;;;;;;3.37;2.30;;;;;;;30.25;19.59;94601.88;5038234;28;20052;-59
2022/06/17 11:28:35;;;;;;;3.78;2.40;;;;;;;31.09;18.37;94594.53;5049386;28;20076;-59
2022/06/17 11:31:07;;;;;;;3.80;1.90;;;;;;;31.50;18.22;94595.53;5037109;28;20386;-59
2022/06/17 11:33:40;;;;;;;3.42;2.20;;;;;;;31.49;18.02;94586.25;5049907;28;20052;-59
2022/06/17 11:36:17;;;;;;;3.05;1.80;;;;;;;30.36;17.41;94598.19;5049063;28;20046;-59
2022/06/17 11:38:45;;;;;;;2.83;1.90;;;;;;;30.57;18.22;94585.09;5050064;28;20049;-59
2022/06/17 11:41:32;;;;;;;3.13;1.75;;;;;;;30.64;17.31;94580.88;5049299;28;20134;-59
2022/06/17 11:44:12;;;;;;;3.58;2.10;;;;;;;31.26;17.23;94568.78;5029877;28;20398;-59
2022/06/17 11:46:53;;;;;;;2.78;1.70;;;;;;;31.28;18.07;94563.34;5027468;28;20784;-59
2022/06/17 11:49:20;;;;;;;3.45;1.88;;;;;;;31.15;18.12;94569.72;5022391;28;20285;-58
2022/06/17 11:51:52;;;;;;;3.37;1.70;;;;;;;30.98;18.60;94569.16;5029678;28;20053;-58
2022/06/17 11:54:29;;;;;;;2.47;1.60;;;;;;;30.90;18.80;94571.84;5029077;28;20409;-58
2022/06/17 11:56:56;;;;;;;3.83;1.90;;;;;;;30.63;19.28;94565.94;5029493;28;20052;-58
2022/06/17 11:59:41;;;;;;;3.85;1.80;;;;;;;30.85;19.30;94567.75;5029382;28;20041;-58
2022/06/17 12:02:08;;;;;;;3.45;1.80;;;;;;;30.97;18.63;94562.72;5029106;28;20057;-58
2022/06/17 12:04:44;;;;;;;3.87;1.90;;;;;;;31.17;17.77;94564.28;5029687;28;20060;-58
2022/06/17 12:07:55;;;;;;;3.67;1.70;;;;;;;31.33;17.82;94562.50;5028950;28;20037;-58
2022/06/17 12:10:46;;;;;;;3.78;1.90;;;;;;;31.19;18.98;94569.38;5022503;28;20040;-58
2022/06/17 12:13:41;;;;;;;4.85;1.80;;;;;;;30.82;18.17;94563.13;5022383;28;20414;-58